Main page
METAR-TAF:

METAR-TAF

Airports :

Gloucester, England

Gloucestershire Airport

latitude: 51-54N, longitude: 002-10W, elevation: 29 m

Current weather observation

The report was made 3 hours and 44 minutes ago, at 17:50 UTC
Calm wind
Temperature 1°C
Humidity 80%
Pressure 1025 hPa
Visibility 10 km or more
no clouds below 1500 m and no cumulonimbus

METAR: EGBJ 211750Z 00000KT CAVOK 01/M02 Q1025

Time: 21:34 (21:34 UTC)

Forecast

The report was made 7 hours and 34 minutes ago, at 14:00 UTC
Forecast valid from 21 at 15 UTC to 21 at 20 UTC
Wind 8 kt from the East
Visibility: 6000 m
Few clouds at a height of 500 ft
Scattered clouds at a height of 2000 ft
Temporary
from 21 at 15 UTC to 21 at 20 UTC
Visibility 10 km or more

TAF: EGBJ 211400Z 2115/2120 08008KT 6000 FEW005 SCT020 TEMPO 2115/2120 9999

Weather observations and forecasts of more than 4000 airports (METAR and TAF reports).

The available stations are represented by yellow and red dots on the map.

Hover mouse over dot to see the name of the station.

Then click to see weather observations and forecasts.

To change the map : click on the green buttons with a black cross to zoom in, on the green button with a dash to zoom out, or on the green arrows for adjacent maps.


METAR-TAF: